Time;durP1;ratioP1;P1;durP2;ratioP2;P2;SDS_P1;SDS_P2;PMS_P1;PMS_P2;Temp;Humidity;BMP_temperature;BMP_pressure;BME280_temperature;BME280_humidity;BME280_pressure;Samples;Min_cycle;Max_cycle;Signal;HPM_P1;HPM_P2
2023/02/05 00:02:17;;;;;;;8.88;5.40;;;;;;;;;;5055144;28;20049;-58
2023/02/05 00:04:43;;;;;;;8.40;5.03;;;;;;;;;;5055694;28;20024;-55
2023/02/05 00:07:09;;;;;;;10.60;5.82;;;;;;;;;;5054933;28;20021;-53
2023/02/05 00:09:35;;;;;;;5.50;4.07;;;;;;;;;;5054786;28;20025;-52
2023/02/05 00:12:02;;;;;;;4.95;3.55;;;;;;;;;;5054731;28;20040;-56
2023/02/05 00:14:28;;;;;;;10.18;4.90;;;;;;;;;;5053821;28;20032;-56
2023/02/05 00:16:54;;;;;;;10.63;5.97;;;;;;;;;;5054661;28;20032;-56
2023/02/05 00:19:19;;;;;;;7.93;3.88;;;;;;;;;;5055268;28;20029;-55
2023/02/05 00:21:45;;;;;;;6.97;5.28;;;;;;;;;;5054785;28;20367;-55
2023/02/05 00:24:12;;;;;;;5.45;3.85;;;;;;;;;;5054514;28;20406;-55
2023/02/05 00:26:38;;;;;;;5.38;4.68;;;;;;;;;;5054330;28;20074;-54
2023/02/05 00:29:04;;;;;;;7.82;5.05;;;;;;;;;;5054496;28;20108;-55
2023/02/05 00:31:30;;;;;;;6.68;4.22;;;;;;;;;;5054648;28;20029;-52
2023/02/05 00:33:57;;;;;;;6.03;3.80;;;;;;;;;;5054490;28;20029;-55
2023/02/05 00:36:24;;;;;;;12.45;5.40;;;;;;;;;;5055351;28;20063;-54
2023/02/05 00:38:50;;;;;;;7.80;4.63;;;;;;;;;;5054662;28;20043;-55
2023/02/05 00:41:17;;;;;;;10.13;5.88;;;;;;;;;;5054630;28;20065;-53
2023/02/05 00:43:43;;;;;;;5.85;4.88;;;;;;;;;;5054640;28;20036;-55
2023/02/05 00:46:10;;;;;;;6.15;3.75;;;;;;;;;;5054886;28;20029;-55
2023/02/05 00:48:36;;;;;;;15.40;5.68;;;;;;;;;;5054546;28;20100;-54
2023/02/05 00:51:02;;;;;;;8.02;4.13;;;;;;;;;;5055003;28;20113;-55
2023/02/05 00:53:28;;;;;;;6.88;4.45;;;;;;;;;;5054971;28;20100;-51
2023/02/05 00:55:54;;;;;;;15.35;5.10;;;;;;;;;;5054686;28;20031;-55
2023/02/05 00:58:20;;;;;;;5.65;4.78;;;;;;;;;;5054330;28;20123;-55
2023/02/05 01:00:46;;;;;;;6.60;5.67;;;;;;;;;;5054221;28;20489;-56
2023/02/05 01:03:12;;;;;;;10.27;6.10;;;;;;;;;;5054394;28;20075;-55
2023/02/05 01:05:39;;;;;;;13.05;6.40;;;;;;;;;;5054731;28;20021;-55
2023/02/05 01:08:06;;;;;;;6.38;5.22;;;;;;;;;;5054762;28;20032;-53
2023/02/05 01:10:32;;;;;;;10.88;5.40;;;;;;;;;;5054168;28;20120;-56
2023/02/05 01:12:58;;;;;;;13.30;6.82;;;;;;;;;;5054121;28;20052;-52
2023/02/05 01:15:24;;;;;;;7.28;5.80;;;;;;;;;;5054727;28;20078;-52
2023/02/05 01:17:50;;;;;;;11.23;5.55;;;;;;;;;;5053971;28;20474;-56
2023/02/05 01:20:16;;;;;;;9.90;6.73;;;;;;;;;;5054523;28;20425;-54
2023/02/05 01:22:42;;;;;;;10.88;6.03;;;;;;;;;;5053895;28;20021;-56
2023/02/05 01:25:08;;;;;;;9.35;6.65;;;;;;;;;;5053722;28;20474;-55
2023/02/05 01:27:35;;;;;;;16.55;7.00;;;;;;;;;;5053976;28;20033;-55
2023/02/05 01:30:01;;;;;;;11.03;7.30;;;;;;;;;;5053859;28;20032;-55
2023/02/05 01:32:27;;;;;;;14.52;6.25;;;;;;;;;;5053493;28;20086;-55
2023/02/05 01:34:53;;;;;;;12.57;6.97;;;;;;;;;;5054104;28;20421;-56
2023/02/05 01:37:19;;;;;;;14.02;5.30;;;;;;;;;;5052692;28;20443;-55
2023/02/05 01:39:45;;;;;;;12.65;6.00;;;;;;;;;;5053723;28;20025;-55
2023/02/05 01:42:18;;;;;;;8.40;5.27;;;;;;;;;;5054106;28;20040;-55
2023/02/05 01:44:44;;;;;;;8.47;6.03;;;;;;;;;;5053977;28;20082;-55
2023/02/05 01:47:10;;;;;;;7.82;5.88;;;;;;;;;;5053341;28;20029;-56
2023/02/05 01:49:38;;;;;;;5.30;4.53;;;;;;;;;;5053584;28;20037;-54
2023/02/05 01:52:13;;;;;;;15.77;8.38;;;;;;;;;;5053614;28;20025;-55
2023/02/05 01:54:43;;;;;;;9.15;5.78;;;;;;;;;;5053526;28;20112;-54
2023/02/05 01:57:18;;;;;;;8.48;5.43;;;;;;;;;;5053561;28;20032;-55
2023/02/05 01:59:44;;;;;;;8.55;5.55;;;;;;;;;;5053777;28;20029;-56
2023/02/05 02:02:10;;;;;;;7.93;5.63;;;;;;;;;;5053032;28;20060;-54
2023/02/05 02:04:38;;;;;;;13.57;5.37;;;;;;;;;;5053513;28;20040;-55
2023/02/05 02:07:05;;;;;;;11.10;6.30;;;;;;;;;;5054031;28;20593;-56
2023/02/05 02:09:31;;;;;;;14.70;7.70;;;;;;;;;;5053462;28;20382;-55
2023/02/05 02:11:57;;;;;;;11.70;7.27;;;;;;;;;;5053564;28;20072;-55
2023/02/05 02:14:24;;;;;;;10.65;6.63;;;;;;;;;;5053361;28;20029;-53
2023/02/05 02:16:51;;;;;;;6.25;4.32;;;;;;;;;;5053572;28;20121;-54
2023/02/05 02:19:20;;;;;;;7.23;6.13;;;;;;;;;;5053345;28;20072;-56
2023/02/05 02:22:05;;;;;;;8.93;7.05;;;;;;;;;;5053795;28;20036;-55
2023/02/05 02:24:43;;;;;;;12.80;7.23;;;;;;;;;;5053209;28;20028;-55
2023/02/05 02:27:08;;;;;;;6.93;6.23;;;;;;;;;;5053593;28;20025;-53
2023/02/05 02:29:37;;;;;;;8.13;4.95;;;;;;;;;;5053645;28;20116;-54
2023/02/05 02:32:08;;;;;;;13.00;7.70;;;;;;;;;;5053455;28;20058;-56
2023/02/05 02:34:54;;;;;;;9.52;7.32;;;;;;;;;;5053435;28;20025;-55
2023/02/05 02:37:55;;;;;;;10.33;6.90;;;;;;;;;;5055706;28;20420;-55
2023/02/05 02:40:25;;;;;;;11.17;7.93;;;;;;;;;;5014793;28;20382;-52
2023/02/05 02:42:56;;;;;;;10.53;6.13;;;;;;;;;;5049094;28;20124;-53
2023/02/05 02:45:25;;;;;;;6.05;5.32;;;;;;;;;;5056739;28;20509;-55
2023/02/05 02:47:52;;;;;;;9.00;8.00;;;;;;;;;;5057375;28;20025;-55
2023/02/05 02:50:22;;;;;;;6.90;6.17;;;;;;;;;;5056580;28;20025;-55
2023/02/05 02:52:50;;;;;;;10.43;7.23;;;;;;;;;;5056967;28;20025;-54
2023/02/05 02:55:16;;;;;;;8.27;5.60;;;;;;;;;;5056940;28;20063;-53
2023/02/05 02:57:43;;;;;;;10.27;5.93;;;;;;;;;;5056865;28;20416;-55
2023/02/05 03:00:14;;;;;;;8.02;7.13;;;;;;;;;;5057062;28;20052;-54
2023/02/05 03:02:40;;;;;;;8.65;6.50;;;;;;;;;;5056680;28;20447;-54
2023/02/05 03:05:10;;;;;;;6.77;5.90;;;;;;;;;;5056519;28;20052;-51
2023/02/05 03:07:38;;;;;;;11.77;7.53;;;;;;;;;;5056516;28;20032;-52
2023/02/05 03:10:12;;;;;;;8.80;5.87;;;;;;;;;;5056404;28;20106;-53
2023/02/05 03:12:38;;;;;;;9.77;6.50;;;;;;;;;;5056601;28;20487;-52
2023/02/05 03:15:04;;;;;;;9.97;7.00;;;;;;;;;;5056905;28;20108;-53
2023/02/05 03:17:30;;;;;;;8.97;6.83;;;;;;;;;;5057203;28;20100;-54
2023/02/05 03:20:01;;;;;;;5.83;5.17;;;;;;;;;;5056342;28;20115;-55
2023/02/05 03:22:27;;;;;;;;;;;;;;;;;;5057138;28;20079;-55
2023/02/05 03:24:53;;;;;;;12.38;6.78;;;;;;;;;;5056256;28;19908;-54
2023/02/05 03:27:20;;;;;;;8.37;7.03;;;;;;;;;;5056440;28;20074;-56
2023/02/05 03:29:46;;;;;;;9.80;6.47;;;;;;;;;;5056026;28;20425;-54
2023/02/05 03:32:18;;;;;;;10.47;6.73;;;;;;;;;;5055977;28;20039;-55
2023/02/05 03:34:58;;;;;;;6.85;5.53;;;;;;;;;;5056342;28;20025;-55
2023/02/05 03:37:30;;;;;;;11.20;6.33;;;;;;;;;;5055968;28;20063;-53
2023/02/05 03:39:59;;;;;;;13.30;7.93;;;;;;;;;;5056433;28;20033;-55
2023/02/05 03:42:31;;;;;;;14.07;7.03;;;;;;;;;;5056381;28;20033;-56
2023/02/05 03:44:57;;;;;;;6.68;6.03;;;;;;;;;;5056399;28;20037;-55
2023/02/05 03:47:38;;;;;;;8.07;5.63;;;;;;;;;;5055966;28;20025;-56
2023/02/05 03:50:30;;;;;;;9.40;5.97;;;;;;;;;;5055682;28;20481;-54
2023/02/05 03:53:14;;;;;;;6.93;4.50;;;;;;;;;;5053869;28;20041;-54
2023/02/05 03:55:42;;;;;;;10.60;4.87;;;;;;;;;;5055331;28;20025;-53
2023/02/05 03:58:12;;;;;;;8.43;6.30;;;;;;;;;;5055574;28;20451;-53
2023/02/05 04:00:39;;;;;;;6.73;5.20;;;;;;;;;;5055467;28;20036;-53
2023/02/05 04:03:05;;;;;;;7.20;6.18;;;;;;;;;;5056058;28;20550;-51
2023/02/05 04:05:31;;;;;;;10.63;6.60;;;;;;;;;;5055791;28;20043;-52
2023/02/05 04:07:57;;;;;;;9.13;5.53;;;;;;;;;;5055679;28;20067;-53
2023/02/05 04:10:23;;;;;;;11.73;5.67;;;;;;;;;;5055868;28;20104;-55
2023/02/05 04:12:49;;;;;;;9.87;5.50;;;;;;;;;;5055915;28;20112;-55
2023/02/05 04:15:15;;;;;;;8.67;5.80;;;;;;;;;;5055216;28;20441;-54
2023/02/05 04:17:41;;;;;;;8.43;5.43;;;;;;;;;;5055418;28;20079;-54
2023/02/05 04:20:07;;;;;;;8.87;6.60;;;;;;;;;;5055642;28;20033;-56
2023/02/05 04:22:33;;;;;;;13.10;5.80;;;;;;;;;;5054944;28;20087;-52
2023/02/05 04:24:59;;;;;;;6.80;6.10;;;;;;;;;;5054936;28;20459;-52
2023/02/05 04:27:25;;;;;;;7.23;5.67;;;;;;;;;;5055455;28;20028;-55
2023/02/05 04:29:51;;;;;;;10.80;6.43;;;;;;;;;;5055364;28;20029;-53
2023/02/05 04:32:17;;;;;;;5.43;4.33;;;;;;;;;;5054959;28;20033;-53
2023/02/05 04:34:43;;;;;;;8.97;5.43;;;;;;;;;;5055302;28;20137;-55
2023/02/05 04:37:09;;;;;;;7.00;5.43;;;;;;;;;;5054898;28;20025;-55
2023/02/05 04:39:35;;;;;;;6.20;4.80;;;;;;;;;;5055514;28;20036;-55
2023/02/05 04:42:01;;;;;;;6.93;5.77;;;;;;;;;;5054653;28;20040;-55
2023/02/05 04:44:27;;;;;;;7.85;5.82;;;;;;;;;;5053529;28;20025;-55
2023/02/05 04:46:53;;;;;;;10.93;5.17;;;;;;;;;;5054685;28;20060;-55
2023/02/05 04:49:19;;;;;;;7.78;5.18;;;;;;;;;;5054574;28;20025;-55
2023/02/05 04:51:45;;;;;;;7.60;5.73;;;;;;;;;;5054549;28;20432;-55
2023/02/05 04:54:11;;;;;;;6.53;5.27;;;;;;;;;;5054224;28;20418;-52
2023/02/05 04:56:38;;;;;;;6.87;5.43;;;;;;;;;;5054417;28;20469;-54
2023/02/05 04:59:04;;;;;;;7.73;5.37;;;;;;;;;;5053711;28;20090;-56
2023/02/05 05:01:30;;;;;;;8.43;6.80;;;;;;;;;;5054167;28;20482;-51
2023/02/05 05:03:55;;;;;;;6.03;4.70;;;;;;;;;;5054584;28;20036;-55
2023/02/05 05:06:22;;;;;;;7.83;6.00;;;;;;;;;;5054121;28;20100;-55
2023/02/05 05:08:47;;;;;;;13.17;5.90;;;;;;;;;;5054290;28;20028;-55
2023/02/05 05:11:15;;;;;;;11.23;5.10;;;;;;;;;;5054778;28;20029;-53
2023/02/05 05:13:41;;;;;;;9.40;6.17;;;;;;;;;;5054107;28;20116;-55
2023/02/05 05:16:08;;;;;;;9.17;5.80;;;;;;;;;;5054408;28;20021;-52
2023/02/05 05:18:34;;;;;;;6.57;4.73;;;;;;;;;;5054094;28;20352;-54
2023/02/05 05:21:00;;;;;;;8.63;6.17;;;;;;;;;;5054312;28;20051;-55
2023/02/05 05:23:26;;;;;;;10.63;6.70;;;;;;;;;;5054112;28;20091;-54
2023/02/05 05:25:52;;;;;;;6.53;5.93;;;;;;;;;;5054360;28;20071;-53
2023/02/05 05:28:18;;;;;;;12.03;5.63;;;;;;;;;;5053679;28;20025;-54
2023/02/05 05:30:45;;;;;;;7.67;5.57;;;;;;;;;;5053967;28;20120;-54
2023/02/05 05:33:11;;;;;;;5.80;5.20;;;;;;;;;;5054469;28;20055;-53
2023/02/05 05:35:37;;;;;;;7.90;5.20;;;;;;;;;;5053857;28;20021;-55
2023/02/05 05:38:03;;;;;;;9.80;5.63;;;;;;;;;;5053547;28;20459;-55
2023/02/05 05:46:01;;;;;;;7.70;6.03;;;;;;;;;;5053755;28;20082;-55
2023/02/05 05:48:28;;;;;;;11.27;6.63;;;;;;;;;;5054026;28;20025;-54
2023/02/05 05:50:54;;;;;;;12.63;7.53;;;;;;;;;;5053902;28;20521;-55
2023/02/05 05:53:20;;;;;;;7.20;6.43;;;;;;;;;;5053555;28;20025;-51
2023/02/05 05:55:46;;;;;;;17.60;7.07;;;;;;;;;;5053880;28;20052;-52
2023/02/05 05:58:12;;;;;;;8.00;6.03;;;;;;;;;;5053577;28;20028;-55
2023/02/05 06:00:39;;;;;;;11.53;6.37;;;;;;;;;;5053758;28;20040;-54
2023/02/05 06:03:05;;;;;;;6.47;4.97;;;;;;;;;;5054133;28;20103;-53
2023/02/05 06:05:31;;;;;;;5.93;4.30;;;;;;;;;;5054092;28;20029;-53
2023/02/05 06:07:57;;;;;;;6.13;4.77;;;;;;;;;;5053187;28;20482;-53
2023/02/05 06:10:23;;;;;;;7.20;5.43;;;;;;;;;;5053671;28;20029;-53
2023/02/05 06:12:51;;;;;;;14.27;5.13;;;;;;;;;;5056550;28;20025;-53
2023/02/05 06:15:17;;;;;;;11.43;7.33;;;;;;;;;;5057517;28;20032;-53
2023/02/05 06:17:43;;;;;;;11.07;6.37;;;;;;;;;;5057525;28;20029;-56
2023/02/05 06:20:10;;;;;;;13.37;6.37;;;;;;;;;;5057708;28;20405;-54
2023/02/05 06:22:36;;;;;;;11.50;5.70;;;;;;;;;;5057308;28;20043;-54
2023/02/05 06:25:03;;;;;;;5.57;5.07;;;;;;;;;;5056752;28;20021;-52
2023/02/05 06:27:29;;;;;;;6.60;5.03;;;;;;;;;;5057238;28;20025;-54
2023/02/05 06:29:55;;;;;;;8.40;5.67;;;;;;;;;;5057275;28;20378;-55
2023/02/05 06:32:21;;;;;;;8.50;6.07;;;;;;;;;;5057489;28;20105;-52
2023/02/05 06:34:47;;;;;;;8.40;6.70;;;;;;;;;;5057399;28;20108;-55
2023/02/05 06:37:13;;;;;;;10.93;5.63;;;;;;;;;;5057372;28;20017;-55
2023/02/05 06:39:39;;;;;;;10.40;6.97;;;;;;;;;;5057602;28;20040;-50
2023/02/05 06:42:05;;;;;;;14.57;7.30;;;;;;;;;;5056855;28;20037;-55
2023/02/05 06:44:31;;;;;;;12.80;6.23;;;;;;;;;;5057005;28;20021;-55
2023/02/05 06:46:57;;;;;;;8.30;6.13;;;;;;;;;;5056912;28;20025;-55
2023/02/05 06:49:23;;;;;;;6.37;5.57;;;;;;;;;;5056442;28;20025;-53
2023/02/05 06:51:49;;;;;;;7.93;6.30;;;;;;;;;;5056753;28;20355;-54
2023/02/05 06:54:15;;;;;;;7.63;5.87;;;;;;;;;;5057567;28;20032;-56
2023/02/05 06:56:41;;;;;;;11.93;5.97;;;;;;;;;;5056787;28;20025;-52
2023/02/05 06:59:07;;;;;;;6.93;5.77;;;;;;;;;;5056667;28;20112;-55
2023/02/05 07:01:33;;;;;;;15.13;6.23;;;;;;;;;;5056588;28;20056;-55
2023/02/05 07:03:59;;;;;;;9.77;5.90;;;;;;;;;;5056889;28;20443;-51
2023/02/05 07:06:25;;;;;;;9.20;5.53;;;;;;;;;;5056626;28;20025;-52
2023/02/05 07:08:52;;;;;;;9.47;5.33;;;;;;;;;;5057037;28;20439;-54
2023/02/05 07:11:18;;;;;;;12.27;6.73;;;;;;;;;;5056520;28;20047;-53
2023/02/05 07:13:44;;;;;;;7.23;6.47;;;;;;;;;;5056348;28;20029;-54
2023/02/05 07:16:10;;;;;;;13.10;7.20;;;;;;;;;;5056921;28;20036;-54
2023/02/05 07:18:37;;;;;;;7.10;5.83;;;;;;;;;;5056375;28;20375;-53
2023/02/05 07:21:09;;;;;;;9.23;6.30;;;;;;;;;;5056220;28;20035;-55
2023/02/05 07:23:36;;;;;;;8.80;5.23;;;;;;;;;;5056124;28;20059;-54
2023/02/05 07:26:06;;;;;;;8.87;4.87;;;;;;;;;;5056754;28;20113;-55
2023/02/05 07:28:32;;;;;;;12.20;6.15;;;;;;;;;;5056415;28;20340;-52
2023/02/05 07:31:05;;;;;;;10.37;6.40;;;;;;;;;;5056341;28;20031;-55
2023/02/05 07:33:31;;;;;;;6.97;5.33;;;;;;;;;;5055922;28;20032;-55
2023/02/05 07:35:57;;;;;;;8.07;6.13;;;;;;;;;;5056368;28;20025;-51
2023/02/05 07:38:23;;;;;;;7.33;4.87;;;;;;;;;;5056244;28;20123;-51
2023/02/05 07:40:50;;;;;;;10.70;6.60;;;;;;;;;;5055768;28;20037;-55
2023/02/05 07:43:16;;;;;;;10.67;7.77;;;;;;;;;;5056219;28;20029;-52
2023/02/05 07:45:42;;;;;;;8.87;7.17;;;;;;;;;;5055957;28;20511;-55
2023/02/05 07:48:08;;;;;;;6.43;5.00;;;;;;;;;;5056103;28;20057;-54
2023/02/05 07:50:34;;;;;;;8.17;6.27;;;;;;;;;;5055820;28;20033;-53
2023/02/05 07:53:00;;;;;;;14.03;7.50;;;;;;;;;;5056489;28;20021;-53
2023/02/05 07:55:26;;;;;;;7.33;6.53;;;;;;;;;;5056242;28;20025;-55
2023/02/05 07:57:52;;;;;;;5.17;4.63;;;;;;;;;;5055392;28;20383;-56
2023/02/05 08:00:18;;;;;;;6.00;5.43;;;;;;;;;;5056312;28;20028;-56
2023/02/05 08:02:44;;;;;;;12.00;7.93;;;;;;;;;;5055248;28;20441;-53
2023/02/05 08:05:10;;;;;;;8.60;5.57;;;;;;;;;;5056045;28;20025;-52
2023/02/05 08:07:36;;;;;;;6.90;6.20;;;;;;;;;;5055995;28;20108;-54
2023/02/05 08:10:02;;;;;;;8.47;5.80;;;;;;;;;;5055776;28;20021;-52
2023/02/05 08:12:28;;;;;;;6.07;5.30;;;;;;;;;;5055134;28;20080;-55
2023/02/05 08:14:55;;;;;;;8.60;5.97;;;;;;;;;;5055076;28;20024;-55
2023/02/05 08:17:21;;;;;;;8.57;7.68;;;;;;;;;;5054997;28;20021;-53
2023/02/05 08:19:47;;;;;;;13.00;6.95;;;;;;;;;;5055336;28;20032;-55
2023/02/05 08:22:13;;;;;;;8.27;6.43;;;;;;;;;;5054925;28;20395;-51
2023/02/05 08:24:39;;;;;;;9.03;6.23;;;;;;;;;;5055457;28;20032;-56
2023/02/05 08:27:05;;;;;;;10.53;7.53;;;;;;;;;;5054843;28;20371;-54
2023/02/05 08:29:31;;;;;;;7.10;5.73;;;;;;;;;;5054896;28;20348;-53
2023/02/05 08:31:57;;;;;;;12.40;7.30;;;;;;;;;;5054749;28;20025;-53
2023/02/05 08:34:23;;;;;;;9.67;7.10;;;;;;;;;;5053826;28;20094;-54
2023/02/05 08:36:49;;;;;;;8.93;6.10;;;;;;;;;;5055595;28;20031;-54
2023/02/05 08:39:14;;;;;;;7.10;5.80;;;;;;;;;;5055026;28;20029;-50
2023/02/05 08:41:40;;;;;;;8.70;6.57;;;;;;;;;;5054344;28;20032;-52
2023/02/05 08:44:06;;;;;;;7.10;5.67;;;;;;;;;;5054134;28;20021;-53
2023/02/05 08:46:32;;;;;;;8.23;6.57;;;;;;;;;;5055090;28;20025;-53
2023/02/05 08:48:58;;;;;;;9.63;6.43;;;;;;;;;;5054612;28;20505;-52
2023/02/05 08:51:24;;;;;;;8.50;6.60;;;;;;;;;;5054621;28;20029;-54
2023/02/05 08:53:52;;;;;;;7.70;7.00;;;;;;;;;;5054571;28;20387;-55
2023/02/05 08:56:18;;;;;;;12.03;6.83;;;;;;;;;;5054975;28;20029;-56
2023/02/05 08:58:44;;;;;;;6.87;5.83;;;;;;;;;;5054121;28;20379;-55
2023/02/05 09:01:11;;;;;;;9.93;4.45;;;;;;;;;;5054203;28;20052;-53
2023/02/05 09:03:38;;;;;;;14.17;6.97;;;;;;;;;;5054209;28;20112;-55
2023/02/05 09:06:05;;;;;;;12.25;6.55;;;;;;;;;;5054157;28;20029;-52
2023/02/05 09:08:31;;;;;;;10.53;7.67;;;;;;;;;;5054802;28;20332;-55
2023/02/05 09:10:57;;;;;;;14.00;7.03;;;;;;;;;;5054730;28;20063;-55
2023/02/05 09:13:24;;;;;;;8.30;6.83;;;;;;;;;;5053681;28;20025;-55
2023/02/05 09:15:50;;;;;;;8.57;6.93;;;;;;;;;;5054549;28;20029;-53
2023/02/05 09:18:16;;;;;;;12.50;7.30;;;;;;;;;;5054297;28;20033;-53
2023/02/05 09:20:47;;;;;;;11.93;7.90;;;;;;;;;;5053886;28;20033;-54
2023/02/05 09:23:13;;;;;;;14.75;8.70;;;;;;;;;;5053990;28;20475;-52
2023/02/05 09:25:40;;;;;;;7.00;6.32;;;;;;;;;;5054526;28;20075;-54
2023/02/05 09:28:08;;;;;;;11.37;6.97;;;;;;;;;;5054117;28;20025;-55
2023/02/05 09:30:34;;;;;;;7.97;7.18;;;;;;;;;;5053912;28;20017;-56
2023/02/05 09:33:00;;;;;;;11.23;6.77;;;;;;;;;;5054247;28;20028;-55
2023/02/05 09:35:26;;;;;;;7.10;5.35;;;;;;;;;;5053974;28;20024;-54
2023/02/05 09:37:52;;;;;;;8.48;7.47;;;;;;;;;;5054145;28;20032;-51
2023/02/05 09:40:31;;;;;;;7.85;6.60;;;;;;;;;;5052896;28;20029;-56
2023/02/05 09:42:56;;;;;;;9.47;7.70;;;;;;;;;;5054157;28;20047;-53
2023/02/05 09:45:41;;;;;;;8.67;7.97;;;;;;;;;;5054254;28;20025;-54
2023/02/05 09:48:16;;;;;;;8.55;7.45;;;;;;;;;;5053965;28;20036;-56
2023/02/05 09:50:42;;;;;;;12.10;6.95;;;;;;;;;;5053759;28;20124;-54
2023/02/05 09:53:11;;;;;;;9.30;7.37;;;;;;;;;;5053894;28;20033;-56
2023/02/05 09:55:39;;;;;;;9.55;7.90;;;;;;;;;;5054025;28;20028;-53
2023/02/05 09:58:07;;;;;;;7.75;6.75;;;;;;;;;;5053608;28;20431;-56
2023/02/05 10:00:36;;;;;;;10.17;8.20;;;;;;;;;;5053485;28;20028;-56
2023/02/05 10:03:21;;;;;;;8.80;7.00;;;;;;;;;;5053349;28;20041;-55
2023/02/05 10:05:58;;;;;;;10.35;5.55;;;;;;;;;;5053870;28;20075;-54
2023/02/05 10:08:31;;;;;;;7.05;6.00;;;;;;;;;;5054372;28;20443;-51
2023/02/05 10:10:57;;;;;;;8.00;5.90;;;;;;;;;;5054118;28;20040;-54
2023/02/05 10:13:27;;;;;;;8.47;6.73;;;;;;;;;;5053749;28;20036;-53
2023/02/05 10:15:52;;;;;;;5.53;4.97;;;;;;;;;;5053544;28;20035;-56
2023/02/05 10:18:42;;;;;;;6.38;5.35;;;;;;;;;;5053719;28;20029;-56
2023/02/05 10:21:27;;;;;;;6.95;5.70;;;;;;;;;;5053344;28;20037;-54
2023/02/05 10:23:56;;;;;;;8.57;6.33;;;;;;;;;;5053245;28;20021;-56
2023/02/05 10:26:24;;;;;;;8.03;6.57;;;;;;;;;;5053311;28;20029;-55
2023/02/05 10:28:52;;;;;;;8.30;6.10;;;;;;;;;;5053942;28;20478;-53
2023/02/05 10:31:23;;;;;;;8.33;7.40;;;;;;;;;;5053234;28;20527;-55
2023/02/05 10:33:54;;;;;;;13.13;5.33;;;;;;;;;;5053836;28;20017;-53
2023/02/05 10:36:22;;;;;;;8.38;5.43;;;;;;;;;;5053071;28;20312;-55
2023/02/05 10:38:49;;;;;;;14.63;7.37;;;;;;;;;;5052887;28;20167;-55
2023/02/05 10:41:15;;;;;;;7.38;6.10;;;;;;;;;;5053027;28;20041;-56
2023/02/05 10:43:50;;;;;;;7.97;5.65;;;;;;;;;;5053259;28;20025;-54
2023/02/05 10:46:16;;;;;;;11.13;7.15;;;;;;;;;;5053837;28;20111;-56
2023/02/05 10:48:44;;;;;;;13.73;6.55;;;;;;;;;;5053208;28;20052;-55
2023/02/05 10:51:19;;;;;;;8.63;6.75;;;;;;;;;;5053409;28;20036;-53
2023/02/05 10:53:45;;;;;;;13.38;6.35;;;;;;;;;;5053455;28;20048;-53
2023/02/05 10:56:15;;;;;;;15.27;5.38;;;;;;;;;;5053371;28;20463;-52
2023/02/05 10:58:41;;;;;;;;;;;;;;;;;;5055764;28;20028;-53
2023/02/05 11:01:11;;;;;;;8.90;5.30;;;;;;;;;;5056751;28;19924;-57
2023/02/05 11:03:37;;;;;;;7.32;5.55;;;;;;;;;;5057041;28;20021;-56
2023/02/05 11:06:07;;;;;;;15.43;5.95;;;;;;;;;;5057225;28;20433;-53
2023/02/05 11:08:34;;;;;;;6.10;5.50;;;;;;;;;;5056581;28;20028;-57
2023/02/05 11:11:01;;;;;;;6.18;5.15;;;;;;;;;;5056506;28;20036;-56
2023/02/05 11:13:27;;;;;;;5.07;4.45;;;;;;;;;;5056437;28;20017;-56
2023/02/05 11:15:53;;;;;;;9.23;5.20;;;;;;;;;;5056806;28;20067;-57
2023/02/05 11:18:27;;;;;;;7.32;5.25;;;;;;;;;;5056464;28;20032;-56
2023/02/05 11:21:00;;;;;;;18.52;5.07;;;;;;;;;;5056291;28;20477;-59
2023/02/05 11:23:29;;;;;;;12.15;4.90;;;;;;;;;;5056394;28;20055;-54
2023/02/05 11:26:00;;;;;;;11.38;3.92;;;;;;;;;;5056869;28;20025;-55
2023/02/05 11:28:27;;;;;;;10.82;5.43;;;;;;;;;;5056249;28;20463;-57
2023/02/05 11:30:53;;;;;;;6.05;4.78;;;;;;;;;;5056194;28;20029;-57
2023/02/05 11:33:25;;;;;;;7.50;4.53;;;;;;;;;;5056188;28;20071;-54
2023/02/05 11:35:55;;;;;;;8.93;5.60;;;;;;;;;;5056222;28;20021;-55
2023/02/05 11:38:28;;;;;;;6.93;5.82;;;;;;;;;;5056025;28;20017;-56
2023/02/05 11:40:55;;;;;;;5.07;4.05;;;;;;;;;;5056255;28;20344;-56
2023/02/05 11:43:32;;;;;;;10.48;5.38;;;;;;;;;;5056511;28;20032;-54
2023/02/05 11:45:59;;;;;;;13.07;5.78;;;;;;;;;;5056034;28;20028;-56
2023/02/05 11:48:28;;;;;;;9.43;5.18;;;;;;;;;;5055881;28;20047;-53
2023/02/05 11:50:54;;;;;;;9.35;5.72;;;;;;;;;;5055799;28;20043;-54
2023/02/05 11:53:20;;;;;;;7.90;3.83;;;;;;;;;;5055762;28;20538;-57
2023/02/05 11:55:51;;;;;;;7.80;4.95;;;;;;;;;;5056006;28;20482;-58
2023/02/05 11:58:26;;;;;;;10.70;5.20;;;;;;;;;;5056053;28;20025;-55
2023/02/05 12:00:56;;;;;;;12.57;5.93;;;;;;;;;;5055286;28;20124;-55
2023/02/05 12:03:23;;;;;;;4.65;4.00;;;;;;;;;;5056394;28;20108;-57
2023/02/05 12:05:52;;;;;;;5.80;3.70;;;;;;;;;;5055783;28;20024;-56
2023/02/05 12:08:30;;;;;;;8.52;4.35;;;;;;;;;;5055502;28;20071;-56
2023/02/05 12:11:02;;;;;;;10.68;6.20;;;;;;;;;;5054878;28;20025;-57
2023/02/05 12:13:47;;;;;;;4.13;3.55;;;;;;;;;;5055658;28;20063;-57
2023/02/05 12:16:21;;;;;;;7.80;3.42;;;;;;;;;;5055712;28;20459;-57
2023/02/05 12:18:47;;;;;;;3.85;3.10;;;;;;;;;;5055676;28;20336;-58
2023/02/05 12:21:22;;;;;;;10.85;5.28;;;;;;;;;;5055199;28;20035;-57
2023/02/05 12:23:48;;;;;;;8.18;4.45;;;;;;;;;;5055246;28;20114;-59
2023/02/05 12:26:25;;;;;;;6.68;4.00;;;;;;;;;;5056043;28;20021;-55
2023/02/05 12:28:51;;;;;;;6.97;4.65;;;;;;;;;;5055683;28;20029;-57
2023/02/05 12:31:21;;;;;;;10.43;3.70;;;;;;;;;;5055411;28;20415;-58
2023/02/05 12:34:05;;;;;;;6.88;5.05;;;;;;;;;;5055359;28;20074;-57
2023/02/05 12:36:34;;;;;;;12.23;4.13;;;;;;;;;;5055000;28;20458;-58
2023/02/05 12:39:14;;;;;;;5.03;3.75;;;;;;;;;;5053919;28;20521;-56
2023/02/05 12:41:43;;;;;;;6.50;3.00;;;;;;;;;;5054668;28;20483;-57
2023/02/05 12:44:09;;;;;;;5.68;3.67;;;;;;;;;;5054821;28;20029;-56
2023/02/05 12:46:42;;;;;;;4.70;3.70;;;;;;;;;;5055588;28;20037;-57
2023/02/05 12:49:27;;;;;;;8.65;4.60;;;;;;;;;;5055003;28;20094;-57
2023/02/05 12:51:53;;;;;;;9.27;3.20;;;;;;;;;;5054710;28;20024;-56
2023/02/05 12:54:22;;;;;;;7.15;3.33;;;;;;;;;;5054360;28;20426;-57
2023/02/05 12:56:51;;;;;;;8.90;3.83;;;;;;;;;;5054886;28;20029;-54
2023/02/05 12:59:26;;;;;;;7.70;4.57;;;;;;;;;;5054520;28;20048;-55
2023/02/05 13:01:55;;;;;;;5.60;3.33;;;;;;;;;;5054427;28;20155;-53
2023/02/05 13:04:30;;;;;;;3.40;2.72;;;;;;;;;;5054393;28;20508;-56
2023/02/05 13:07:10;;;;;;;6.38;2.97;;;;;;;;;;5054395;28;20074;-57
2023/02/05 13:09:49;;;;;;;7.60;3.97;;;;;;;;;;5054844;28;20061;-55
2023/02/05 13:12:22;;;;;;;5.97;3.67;;;;;;;;;;5054364;28;20029;-55
2023/02/05 13:14:54;;;;;;;6.35;3.78;;;;;;;;;;5054824;28;20078;-56
2023/02/05 13:17:23;;;;;;;10.43;5.35;;;;;;;;;;5054799;28;20043;-55
2023/02/05 13:19:51;;;;;;;5.15;3.90;;;;;;;;;;5053971;28;20021;-55
2023/02/05 13:28:40;;;;;;;8.63;5.25;;;;;;;;;;5054141;28;20366;-57
2023/02/05 13:31:19;;;;;;;6.50;3.85;;;;;;;;;;5054527;28;20356;-54
2023/02/05 13:33:45;;;;;;;5.05;2.80;;;;;;;;;;5053680;28;20112;-57
2023/02/05 13:36:11;;;;;;;5.00;2.67;;;;;;;;;;5054008;28;20035;-56
2023/02/05 13:38:56;;;;;;;3.50;2.55;;;;;;;;;;5053682;28;20100;-54
2023/02/05 13:41:41;;;;;;;3.38;2.30;;;;;;;;;;5053732;28;20091;-57
2023/02/05 13:44:10;;;;;;;3.00;2.00;;;;;;;;;;5054206;28;20025;-54
2023/02/05 13:46:36;;;;;;;3.25;2.38;;;;;;;;;;5053766;28;20036;-54
2023/02/05 13:49:30;;;;;;;2.85;1.77;;;;;;;;;;5054231;28;20025;-56
2023/02/05 13:52:06;;;;;;;3.83;2.45;;;;;;;;;;5053761;28;20382;-55
2023/02/05 13:54:38;;;;;;;3.80;2.08;;;;;;;;;;5054374;28;20093;-57
2023/02/05 13:57:20;;;;;;;2.85;1.85;;;;;;;;;;5053726;28;20403;-56
2023/02/05 13:59:51;;;;;;;2.63;1.85;;;;;;;;;;5054177;28;20025;-56
2023/02/05 14:02:29;;;;;;;2.50;1.45;;;;;;;;;;5053363;28;20479;-55
2023/02/05 14:04:56;;;;;;;3.78;1.80;;;;;;;;;;5053622;28;20071;-55
2023/02/05 14:07:27;;;;;;;2.72;2.10;;;;;;;;;;5053523;28;20037;-56
2023/02/05 14:09:55;;;;;;;;;;;;;;;;;;5054330;28;20340;-56
2023/02/05 14:12:25;;;;;;;2.75;1.77;;;;;;;;;;5053770;28;19912;-55
2023/02/05 14:15:10;;;;;;;2.45;1.55;;;;;;;;;;5053483;28;20057;-56
2023/02/05 14:17:36;;;;;;;2.13;1.55;;;;;;;;;;5054214;28;20553;-54
2023/02/05 14:20:04;;;;;;;2.27;1.90;;;;;;;;;;5053434;28;20063;-55
2023/02/05 14:22:36;;;;;;;2.37;1.17;;;;;;;;;;5053602;28;20029;-53
2023/02/05 14:25:03;;;;;;;2.55;1.75;;;;;;;;;;5053725;28;20033;-55
2023/02/05 14:27:29;;;;;;;1.75;1.17;;;;;;;;;;5053372;28;20052;-54
2023/02/05 14:29:55;;;;;;;2.57;1.77;;;;;;;;;;5053578;28;20126;-58
2023/02/05 14:32:27;;;;;;;2.10;1.45;;;;;;;;;;5053839;28;20036;-57
2023/02/05 14:35:04;;;;;;;3.33;2.07;;;;;;;;;;5057621;28;20123;-59
2023/02/05 14:37:32;;;;;;;2.47;1.70;;;;;;;;;;5057532;28;20036;-58
2023/02/05 14:39:59;;;;;;;2.40;1.93;;;;;;;;;;5057619;28;20025;-57
2023/02/05 14:42:27;;;;;;;3.00;1.50;;;;;;;;;;5057570;28;20033;-57
2023/02/05 14:44:56;;;;;;;2.90;2.40;;;;;;;;;;5057389;28;20451;-56
2023/02/05 14:47:27;;;;;;;1.67;1.15;;;;;;;;;;5057613;28;20119;-58
2023/02/05 14:49:59;;;;;;;3.53;2.40;;;;;;;;;;5057477;28;20059;-57
2023/02/05 14:52:27;;;;;;;2.67;1.90;;;;;;;;;;5056974;28;20033;-58
2023/02/05 14:55:07;;;;;;;2.88;1.48;;;;;;;;;;5057505;28;20109;-58
2023/02/05 14:57:33;;;;;;;3.10;1.23;;;;;;;;;;5056832;28;20467;-56
2023/02/05 14:59:59;;;;;;;2.50;1.55;;;;;;;;;;5056844;28;20027;-58
2023/02/05 15:02:43;;;;;;;2.65;2.08;;;;;;;;;;5056824;28;20592;-58